createdAt,value
2019-05-17T00:02:09.711Z,98835.07
2019-05-17T00:07:16.680Z,98829.78
2019-05-17T00:12:24.205Z,98821.63
2019-05-17T00:17:29.759Z,98824.77
2019-05-17T00:22:36.549Z,98811.11
2019-05-17T00:27:42.517Z,98803.20
2019-05-17T00:32:48.115Z,98808.91
2019-05-17T00:37:59.955Z,98800.19
2019-05-17T00:43:06.761Z,98803.69
2019-05-17T00:48:13.755Z,98790.43
2019-05-17T00:53:19.220Z,98792.00
2019-05-17T00:58:26.276Z,98780.45
2019-05-17T01:03:32.384Z,98781.20
2019-05-17T01:08:40.083Z,98777.77
2019-05-17T01:13:46.682Z,98768.14
2019-05-17T01:18:52.502Z,98758.69
2019-05-17T01:23:58.067Z,98753.05
2019-05-17T01:29:06.675Z,98743.63
2019-05-17T01:34:12.670Z,98744.55
2019-05-17T01:39:21.395Z,98741.42
2019-05-17T01:44:27.217Z,98734.45
2019-05-17T01:49:37.805Z,98733.28
2019-05-17T01:54:43.891Z,98729.25
2019-05-17T01:59:49.426Z,98724.31
2019-05-17T02:04:56.936Z,98726.72
2019-05-17T02:10:02.618Z,98724.06
2019-05-17T02:15:16.417Z,98722.36
2019-05-17T02:20:28.776Z,98720.55
2019-05-17T02:25:37.627Z,98711.64
2019-05-17T02:30:44.080Z,98724.78
2019-05-17T02:35:53.394Z,98716.80
2019-05-17T02:40:59.010Z,98710.17
2019-05-17T02:46:04.956Z,98716.48
2019-05-17T02:51:13.142Z,98711.59
2019-05-17T02:56:23.801Z,98708.62
2019-05-17T03:01:29.273Z,98701.88
2019-05-17T03:06:36.268Z,98705.15
2019-05-17T03:11:43.609Z,98701.17
2019-05-17T03:16:49.102Z,98708.61
2019-05-17T03:21:55.262Z,98716.03
2019-05-17T03:27:02.987Z,98712.81
2019-05-17T03:32:16.762Z,98704.38
2019-05-17T03:37:19.378Z,98711.80
2019-05-17T03:42:26.751Z,98722.82
2019-05-17T03:47:33.394Z,98711.92
2019-05-17T03:52:44.369Z,98712.00
2019-05-17T03:57:53.007Z,98706.50
2019-05-17T04:02:58.323Z,98712.98
2019-05-17T04:08:07.724Z,98709.20
2019-05-17T04:13:13.479Z,98709.56
2019-05-17T04:18:23.553Z,98708.84
2019-05-17T04:23:28.337Z,98707.05
2019-05-17T04:28:33.960Z,98699.84
2019-05-17T04:33:42.793Z,98693.05
2019-05-17T04:38:58.559Z,98665.38
2019-05-17T04:44:06.259Z,98662.10
2019-05-17T04:49:13.726Z,98680.86
2019-05-17T04:54:22.514Z,98682.06
2019-05-17T04:59:27.101Z,98692.14
2019-05-17T05:04:38.503Z,98697.52
2019-05-17T05:09:42.923Z,98669.51
2019-05-17T05:14:53.637Z,98685.90
2019-05-17T05:19:59.160Z,98680.66
2019-05-17T05:25:05.392Z,98687.22
2019-05-17T05:30:12.441Z,98682.45
2019-05-17T05:35:22.326Z,98691.55
2019-05-17T05:40:29.177Z,98664.67
2019-05-17T05:45:34.811Z,98675.67
2019-05-17T05:50:42.860Z,98679.66
2019-05-17T05:55:47.665Z,98693.08
2019-05-17T06:00:53.363Z,98691.72
2019-05-17T06:06:03.486Z,98683.82
2019-05-17T06:11:13.150Z,98681.63
2019-05-17T06:16:22.797Z,98680.55
2019-05-17T06:21:31.794Z,98673.57
2019-05-17T06:26:46.009Z,98674.16
2019-05-17T06:31:52.029Z,98674.37
2019-05-17T06:36:58.220Z,98670.82
2019-05-17T06:42:04.534Z,98685.63
2019-05-17T06:47:11.922Z,98677.27
2019-05-17T06:52:17.442Z,98683.26
2019-05-17T06:57:23.411Z,98672.48
2019-05-17T07:02:31.863Z,98666.45
2019-05-17T07:07:41.643Z,98656.95
2019-05-17T07:12:58.302Z,98650.64
2019-05-17T07:17:59.962Z,98646.84
2019-05-17T07:23:05.207Z,98638.13
2019-05-17T07:28:10.867Z,98638.78
2019-05-17T07:33:17.021Z,98630.15
2019-05-17T07:38:25.411Z,98625.84
2019-05-17T07:43:30.936Z,98622.52
2019-05-17T07:48:40.517Z,98618.27
2019-05-17T07:53:49.309Z,98620.47
2019-05-17T07:58:57.384Z,98617.00
2019-05-17T08:04:02.986Z,98621.09
2019-05-17T08:09:13.761Z,98615.91
2019-05-17T08:14:29.258Z,98615.53
2019-05-17T08:19:29.742Z,98598.64
2019-05-17T08:24:36.781Z,98598.66
2019-05-17T08:34:52.402Z,98595.05
2019-05-17T08:40:00.097Z,98577.92
2019-05-17T08:45:06.127Z,98572.18
2019-05-17T08:50:11.924Z,98560.16
2019-05-17T08:55:17.526Z,98556.48
2019-05-17T09:00:26.173Z,98560.69
2019-05-17T09:05:37.481Z,98556.03
2019-05-17T09:10:43.390Z,98538.91
2019-05-17T09:15:49.979Z,98545.70
2019-05-17T09:21:00.565Z,98543.49
2019-05-17T09:26:12.329Z,98539.98
2019-05-17T09:31:20.223Z,98532.10
2019-05-17T09:36:25.160Z,98529.23
2019-05-17T09:41:31.144Z,98527.47
2019-05-17T09:46:36.698Z,98516.08
2019-05-17T09:56:49.724Z,98519.18
2019-05-17T10:01:57.158Z,98520.98
2019-05-17T10:07:03.935Z,98526.50
2019-05-17T10:12:12.019Z,98520.41
2019-05-17T10:17:18.246Z,98516.53
2019-05-17T10:22:24.980Z,98512.05
2019-05-17T10:27:31.369Z,98518.84
2019-05-17T10:32:36.989Z,98508.42
2019-05-17T10:37:42.918Z,98510.42
2019-05-17T10:42:50.093Z,98506.37
2019-05-17T10:47:55.842Z,98510.30
2019-05-17T10:53:01.746Z,98509.02
2019-05-17T10:58:09.957Z,98511.70
2019-05-17T11:03:15.137Z,98519.28
2019-05-17T11:08:20.644Z,98508.63
2019-05-17T11:13:27.522Z,98512.78
2019-05-17T11:18:35.097Z,98502.41
2019-05-17T11:23:41.712Z,98504.80
2019-05-17T11:33:50.177Z,98506.76
2019-05-17T11:38:55.718Z,98509.63
2019-05-17T11:44:03.186Z,98501.48
2019-05-17T11:49:11.467Z,98498.55
2019-05-17T11:54:17.033Z,98496.88
2019-05-17T11:59:22.555Z,98489.41
2019-05-17T12:09:37.928Z,98488.55
2019-05-17T12:14:45.227Z,98490.20
2019-05-17T12:19:50.866Z,98482.78
2019-05-17T12:24:58.021Z,98478.48
2019-05-17T12:30:04.320Z,98478.08
2019-05-17T12:35:10.557Z,98464.47
2019-05-17T12:40:17.211Z,98464.48
2019-05-17T12:45:22.826Z,98458.98
2019-05-17T12:50:28.465Z,98457.66
2019-05-17T12:55:34.050Z,98439.98
2019-05-17T13:00:39.686Z,98459.09
2019-05-17T13:05:45.260Z,98453.36
2019-05-17T13:10:50.791Z,98449.31
2019-05-17T13:15:56.357Z,98456.67
2019-05-17T13:21:05.757Z,98453.12
2019-05-17T13:26:10.394Z,98450.70
2019-05-17T13:31:16.450Z,98444.08
2019-05-17T13:36:23.294Z,98449.94
2019-05-17T13:41:29.906Z,98444.58
2019-05-17T13:46:38.398Z,98435.69
2019-05-17T13:51:43.980Z,98434.62
2019-05-17T13:56:49.621Z,98426.72
2019-05-17T14:01:55.600Z,98424.09
2019-05-17T14:07:01.646Z,98425.80
2019-05-17T14:12:08.775Z,98413.81
2019-05-17T14:17:14.472Z,98412.23
2019-05-17T14:22:21.152Z,98414.95
2019-05-17T14:27:26.792Z,98413.80
2019-05-17T14:32:32.380Z,98417.47
2019-05-17T14:37:37.981Z,98414.55
2019-05-17T14:42:43.584Z,98399.78
2019-05-17T14:47:52.002Z,98400.87
2019-05-17T14:52:58.353Z,98393.33
2019-05-17T14:58:04.269Z,98382.77
2019-05-17T15:03:09.901Z,98387.88
2019-05-17T15:08:15.425Z,98384.50
2019-05-17T15:13:20.990Z,98386.39
2019-05-17T15:18:26.547Z,98384.48
2019-05-17T15:23:32.534Z,98389.64
2019-05-17T15:28:38.125Z,98384.08
2019-05-17T15:33:43.639Z,98374.91
2019-05-17T15:38:49.500Z,98374.99
2019-05-17T15:43:55.107Z,98388.09
2019-05-17T15:49:01.453Z,98378.00
2019-05-17T15:54:08.779Z,98365.50
2019-05-17T15:59:14.423Z,98366.50
2019-05-17T16:04:23.473Z,98356.40
2019-05-17T16:19:42.268Z,98346.30
2019-05-17T16:24:53.891Z,98341.38
2019-05-17T16:30:00.569Z,98347.13
2019-05-17T16:35:08.178Z,98346.08
2019-05-17T16:40:13.870Z,98340.02
2019-05-17T16:45:25.581Z,98335.83
2019-05-17T16:50:31.165Z,98334.52
2019-05-17T16:55:39.868Z,98331.81
2019-05-17T17:00:46.946Z,98332.86
2019-05-17T17:05:52.523Z,98333.16
2019-05-17T17:10:58.065Z,98332.37
2019-05-17T17:16:05.605Z,98338.66
2019-05-17T17:21:15.410Z,98331.09
2019-05-17T17:26:24.567Z,98339.14
2019-05-17T17:31:42.230Z,98334.98
2019-05-17T17:36:48.032Z,98341.39
2019-05-17T17:41:54.462Z,98348.19
2019-05-17T17:47:00.728Z,98341.91
2019-05-17T17:52:07.658Z,98336.30
2019-05-17T17:57:13.663Z,98334.67
2019-05-17T18:02:19.383Z,98338.95
2019-05-17T18:07:27.022Z,98336.16
2019-05-17T18:12:32.610Z,98325.71
2019-05-17T18:17:39.481Z,98333.08
2019-05-17T18:22:46.618Z,98335.92
2019-05-17T18:28:01.307Z,98335.84
2019-05-17T18:33:09.515Z,98339.44
2019-05-17T18:38:17.502Z,98348.30
2019-05-17T18:43:23.408Z,98347.94
2019-05-17T18:48:33.253Z,98358.61
2019-05-17T18:53:45.264Z,98354.78
2019-05-17T18:58:51.866Z,98365.20
2019-05-17T19:03:59.920Z,98363.95
2019-05-17T19:09:12.194Z,98373.14
2019-05-17T19:14:27.016Z,98372.23
2019-05-17T19:19:41.667Z,98379.00
2019-05-17T19:24:52.216Z,98376.16
2019-05-17T19:30:01.110Z,98383.86
2019-05-17T19:35:16.247Z,98376.34
2019-05-17T19:40:27.528Z,98379.63
2019-05-17T19:45:36.273Z,98384.61
2019-05-17T19:50:44.722Z,98386.52
2019-05-17T19:55:50.459Z,98383.46
2019-05-17T20:00:57.734Z,98385.48
2019-05-17T20:06:15.552Z,98377.20
2019-05-17T20:11:33.551Z,98384.20
2019-05-17T20:16:36.953Z,98376.84
2019-05-17T20:21:44.755Z,98381.41
2019-05-17T20:26:53.509Z,98371.78
2019-05-17T20:32:02.279Z,98371.16
2019-05-17T20:37:12.060Z,98366.78
2019-05-17T20:42:18.019Z,98366.55
2019-05-17T20:47:24.099Z,98370.07
2019-05-17T20:52:29.800Z,98366.02
2019-05-17T20:57:38.132Z,98357.61
2019-05-17T21:02:46.226Z,98349.28
2019-05-17T21:07:56.086Z,98356.59
2019-05-17T21:13:01.792Z,98357.50
2019-05-17T21:18:07.714Z,98350.39
2019-05-17T21:23:14.142Z,98355.62
2019-05-17T21:28:22.503Z,98353.41
2019-05-17T21:33:31.458Z,98361.90
2019-05-17T21:38:36.979Z,98361.67
2019-05-17T21:43:47.253Z,98364.38
2019-05-17T21:48:54.971Z,98365.69
2019-05-17T21:54:02.851Z,98373.95
2019-05-17T21:59:12.902Z,98359.58
2019-05-17T22:04:19.534Z,98369.58
2019-05-17T22:09:25.477Z,98353.12
2019-05-17T22:14:32.442Z,98359.48
2019-05-17T22:19:38.039Z,98357.56
2019-05-17T22:24:43.526Z,98363.63
2019-05-17T22:29:50.783Z,98358.70
2019-05-17T22:34:57.478Z,98357.03
2019-05-17T22:40:03.344Z,98356.01
2019-05-17T22:45:09.387Z,98360.52
2019-05-17T22:50:18.180Z,98363.54
2019-05-17T22:55:25.503Z,98370.23
2019-05-17T23:00:32.204Z,98373.33
2019-05-17T23:05:37.755Z,98366.91
2019-05-17T23:10:43.755Z,98364.63
2019-05-17T23:16:11.273Z,98358.69
2019-05-17T23:21:16.775Z,98365.34
2019-05-17T23:26:22.341Z,98365.03
2019-05-17T23:31:27.916Z,98355.06
2019-05-17T23:36:36.905Z,98342.94
2019-05-17T23:41:42.499Z,98343.62
2019-05-17T23:46:47.941Z,98344.69
2019-05-17T23:51:56.191Z,98362.67
2019-05-17T23:57:01.899Z,98364.86
